createdAt,value
2019-03-04T00:00:14.330Z,992.38
2019-03-04T00:01:14.330Z,992.35
2019-03-04T00:02:14.334Z,992.35
2019-03-04T00:03:14.339Z,992.34
2019-03-04T00:04:14.349Z,992.33
2019-03-04T00:05:14.349Z,992.34
2019-03-04T00:06:14.355Z,992.32
2019-03-04T00:07:14.361Z,992.37
2019-03-04T00:08:14.365Z,992.38
2019-03-04T00:09:14.370Z,992.32
2019-03-04T00:10:14.376Z,992.33
2019-03-04T00:11:14.380Z,992.37
2019-03-04T00:12:14.387Z,992.38
2019-03-04T00:13:14.392Z,992.40
2019-03-04T00:14:14.396Z,992.32
2019-03-04T00:15:14.403Z,992.36
2019-03-04T00:16:14.412Z,992.36
2019-03-04T00:17:14.412Z,992.39
2019-03-04T00:18:14.417Z,992.42
2019-03-04T00:19:14.421Z,992.44
2019-03-04T00:20:14.426Z,992.43
2019-03-04T00:21:14.431Z,992.40
2019-03-04T00:22:14.441Z,992.39
2019-03-04T00:23:14.442Z,992.40
2019-03-04T00:24:14.447Z,992.39
2019-03-04T00:25:14.454Z,992.42
2019-03-04T00:26:14.455Z,992.39
2019-03-04T00:27:14.468Z,992.41
2019-03-04T00:28:14.468Z,992.38
2019-03-04T00:29:14.471Z,992.44
2019-03-04T00:30:14.480Z,992.42
2019-03-04T00:31:14.483Z,992.43
2019-03-04T00:32:14.488Z,992.49
2019-03-04T00:33:14.491Z,992.47
2019-03-04T00:34:14.498Z,992.47
2019-03-04T00:35:14.502Z,992.49
2019-03-04T00:36:14.508Z,992.49
2019-03-04T00:37:14.512Z,992.50
2019-03-04T00:38:14.517Z,992.50
2019-03-04T00:39:14.523Z,992.52
2019-03-04T00:40:14.529Z,992.45
2019-03-04T00:41:14.533Z,992.53
2019-03-04T00:42:14.539Z,992.52
2019-03-04T00:43:14.543Z,992.51
2019-03-04T00:44:14.548Z,992.49
2019-03-04T00:45:14.561Z,992.49
2019-03-04T00:46:14.561Z,992.43
2019-03-04T00:47:14.564Z,992.44
2019-03-04T00:48:14.568Z,992.46
2019-03-04T00:49:14.585Z,992.43
2019-03-04T00:50:14.589Z,992.42
2019-03-04T00:51:14.583Z,992.45
2019-03-04T00:52:14.588Z,992.47
2019-03-04T00:53:14.591Z,992.47
2019-03-04T00:54:14.598Z,992.44
2019-03-04T00:55:14.602Z,992.48
2019-03-04T00:56:14.611Z,992.47
2019-03-04T00:57:14.653Z,992.46
2019-03-04T00:58:14.620Z,992.47
2019-03-04T00:59:14.625Z,992.46
2019-03-04T01:00:14.627Z,992.44
2019-03-04T01:01:14.633Z,992.37
2019-03-04T01:02:14.639Z,992.35
2019-03-04T01:03:14.646Z,992.33
2019-03-04T01:04:14.648Z,992.33
2019-03-04T01:05:14.655Z,992.36
2019-03-04T01:06:14.659Z,992.34
2019-03-04T01:07:14.665Z,992.36
2019-03-04T01:08:14.670Z,992.38
2019-03-04T01:09:14.674Z,992.39
2019-03-04T01:10:14.683Z,992.40
2019-03-04T01:11:14.685Z,992.38
2019-03-04T01:12:14.689Z,992.37
2019-03-04T01:13:14.739Z,992.38
2019-03-04T01:14:14.698Z,992.33
2019-03-04T01:15:14.704Z,992.32
2019-03-04T01:16:14.710Z,992.32
2019-03-04T01:17:14.721Z,992.30
2019-03-04T01:18:14.719Z,992.23
2019-03-04T01:19:14.729Z,992.28
2019-03-04T01:20:14.736Z,992.29
2019-03-04T01:21:14.734Z,992.27
2019-03-04T01:22:14.740Z,992.29
2019-03-04T01:23:14.744Z,992.26
2019-03-04T01:24:14.749Z,992.26
2019-03-04T01:25:14.753Z,992.24
2019-03-04T01:26:14.760Z,992.25
2019-03-04T01:27:14.766Z,992.23
2019-03-04T01:28:14.771Z,992.22
2019-03-04T01:29:14.775Z,992.20
2019-03-04T01:30:14.780Z,992.19
2019-03-04T01:31:14.785Z,992.18
2019-03-04T01:32:14.792Z,992.16
2019-03-04T01:33:14.796Z,992.14
2019-03-04T01:34:14.799Z,992.13
2019-03-04T01:35:14.806Z,992.15
2019-03-04T01:36:14.811Z,992.13
2019-03-04T01:37:14.828Z,992.15
2019-03-04T01:38:14.819Z,992.14
2019-03-04T01:39:14.826Z,992.14
2019-03-04T01:40:14.834Z,992.14
2019-03-04T01:41:14.835Z,992.14
2019-03-04T01:42:14.840Z,992.13
2019-03-04T01:43:14.845Z,992.10
2019-03-04T01:44:14.851Z,992.08
2019-03-04T01:45:14.856Z,992.05
2019-03-04T01:46:16.898Z,992.03
2019-03-04T01:47:14.874Z,992.01
2019-03-04T01:48:14.871Z,991.98
2019-03-04T01:49:14.875Z,991.97
2019-03-04T01:50:14.895Z,991.96
2019-03-04T01:51:14.885Z,991.90
2019-03-04T01:52:14.890Z,991.88
2019-03-04T01:53:14.900Z,991.87
2019-03-04T01:54:14.900Z,991.88
2019-03-04T01:55:14.905Z,991.81
2019-03-04T01:56:14.911Z,991.81
2019-03-04T01:57:14.914Z,991.80
2019-03-04T01:58:14.920Z,991.80
2019-03-04T01:59:14.928Z,991.82
2019-03-04T02:00:14.930Z,991.80
2019-03-04T02:01:14.937Z,991.85
2019-03-04T02:02:14.939Z,991.87
2019-03-04T02:03:14.948Z,991.80
2019-03-04T02:04:14.950Z,991.84
2019-03-04T02:05:14.959Z,991.85
2019-03-04T02:06:14.960Z,991.88
2019-03-04T02:07:14.966Z,991.92
2019-03-04T02:08:14.972Z,991.88
2019-03-04T02:09:14.976Z,991.85
2019-03-04T02:10:14.981Z,991.89
2019-03-04T02:11:15.040Z,991.87
2019-03-04T02:12:14.993Z,991.87
2019-03-04T02:13:14.995Z,991.85
2019-03-04T02:14:15.001Z,991.85
2019-03-04T02:15:15.007Z,991.87
2019-03-04T02:16:15.015Z,991.83
2019-03-04T02:17:15.016Z,991.85
2019-03-04T02:18:15.022Z,991.86
2019-03-04T02:19:15.031Z,991.87
2019-03-04T02:20:15.050Z,991.86
2019-03-04T02:21:15.037Z,991.86
2019-03-04T02:22:15.043Z,991.86
2019-03-04T02:23:15.047Z,991.82
2019-03-04T02:24:15.051Z,991.82
2019-03-04T02:25:15.055Z,991.79
2019-03-04T02:26:15.061Z,991.82
2019-03-04T02:27:15.065Z,991.80
2019-03-04T02:28:15.074Z,991.78
2019-03-04T02:29:15.077Z,991.81
2019-03-04T02:30:15.081Z,991.80
2019-03-04T02:31:15.088Z,991.76
2019-03-04T02:32:15.092Z,991.83
2019-03-04T02:33:15.097Z,991.84
2019-03-04T02:34:15.102Z,991.82
2019-03-04T02:35:15.107Z,991.81
2019-03-04T02:36:15.113Z,991.80
2019-03-04T02:37:15.115Z,991.81
2019-03-04T02:38:15.122Z,991.85
2019-03-04T02:39:15.131Z,991.80
2019-03-04T02:40:15.142Z,991.82
2019-03-04T02:41:15.136Z,991.80
2019-03-04T02:42:15.141Z,991.81
2019-03-04T02:43:15.147Z,991.78
2019-03-04T02:44:15.154Z,991.75
2019-03-04T02:45:15.156Z,991.69
2019-03-04T02:46:15.160Z,991.70
2019-03-04T02:47:15.168Z,991.74
2019-03-04T02:48:15.173Z,991.70
2019-03-04T02:49:15.177Z,991.72
2019-03-04T02:50:15.180Z,991.73
2019-03-04T02:51:15.190Z,991.69
2019-03-04T02:52:15.192Z,991.68
2019-03-04T02:53:15.199Z,991.68
2019-03-04T02:54:15.202Z,991.67
2019-03-04T02:55:15.223Z,991.61
2019-03-04T02:56:15.237Z,991.61
2019-03-04T02:57:15.216Z,991.58
2019-03-04T02:58:15.220Z,991.60
2019-03-04T02:59:15.227Z,991.60
2019-03-04T03:00:15.231Z,991.58
2019-03-04T03:01:15.236Z,991.59
2019-03-04T03:02:15.247Z,991.62
2019-03-04T03:03:15.254Z,991.58
2019-03-04T03:04:15.252Z,991.56
2019-03-04T03:05:15.256Z,991.54
2019-03-04T03:06:15.261Z,991.50
2019-03-04T03:07:15.270Z,991.55
2019-03-04T03:08:15.273Z,991.55
2019-03-04T03:09:15.276Z,991.61
2019-03-04T03:10:15.284Z,991.60
2019-03-04T03:11:15.286Z,991.62
2019-03-04T03:12:15.292Z,991.62
2019-03-04T03:13:15.294Z,991.57
2019-03-04T03:14:15.304Z,991.59
2019-03-04T03:15:15.309Z,991.58
2019-03-04T03:16:15.321Z,991.57
2019-03-04T03:17:15.357Z,991.52
2019-03-04T03:18:15.321Z,991.55
2019-03-04T03:19:15.327Z,991.50
2019-03-04T03:20:15.330Z,991.50
2019-03-04T03:21:15.336Z,991.49
2019-03-04T03:22:15.354Z,991.51
2019-03-04T03:23:15.350Z,991.57
2019-03-04T03:24:15.353Z,991.55
2019-03-04T03:25:15.357Z,991.57
2019-03-04T03:26:15.373Z,991.59
2019-03-04T03:27:15.367Z,991.54
2019-03-04T03:28:15.371Z,991.58
2019-03-04T03:29:15.380Z,991.54
2019-03-04T03:30:15.398Z,991.50
2019-03-04T03:31:15.390Z,991.53
2019-03-04T03:32:15.392Z,991.47
2019-03-04T03:33:15.397Z,991.50
2019-03-04T03:34:15.402Z,991.51
2019-03-04T03:35:15.423Z,991.50
2019-03-04T03:36:15.413Z,991.46
2019-03-04T03:37:15.416Z,991.47
2019-03-04T03:38:15.421Z,991.48
2019-03-04T03:39:15.425Z,991.45
2019-03-04T03:40:15.436Z,991.45
2019-03-04T03:41:15.435Z,991.50
2019-03-04T03:42:15.440Z,991.47
2019-03-04T03:43:15.451Z,991.47
2019-03-04T03:44:15.452Z,991.45
2019-03-04T03:45:15.455Z,991.43
2019-03-04T03:46:15.461Z,991.42
2019-03-04T03:47:15.482Z,991.44
2019-03-04T03:48:15.472Z,991.43
2019-03-04T03:49:15.477Z,991.45
2019-03-04T03:50:15.481Z,991.49
2019-03-04T03:51:15.488Z,991.46
2019-03-04T03:52:15.502Z,991.46
2019-03-04T03:53:15.496Z,991.50
2019-03-04T03:54:15.501Z,991.51
2019-03-04T03:55:15.511Z,991.54
2019-03-04T03:56:15.510Z,991.57
2019-03-04T03:57:15.516Z,991.56
2019-03-04T03:58:15.521Z,991.52
2019-03-04T03:59:15.527Z,991.53
2019-03-04T04:00:15.535Z,991.50
2019-03-04T04:01:15.537Z,991.50
2019-03-04T04:02:15.541Z,991.44
2019-03-04T04:03:15.865Z,991.46
2019-03-04T04:04:15.554Z,991.49
2019-03-04T04:05:15.556Z,991.44
2019-03-04T04:06:15.561Z,991.47
2019-03-04T04:07:15.566Z,991.44
2019-03-04T04:08:15.572Z,991.46
2019-03-04T04:09:15.575Z,991.45
2019-03-04T04:10:15.580Z,991.46
2019-03-04T04:11:15.588Z,991.47
2019-03-04T04:12:15.592Z,991.42
2019-03-04T04:13:15.598Z,991.41
2019-03-04T04:14:15.602Z,991.46
2019-03-04T04:15:15.608Z,991.46
2019-03-04T04:16:15.611Z,991.48
2019-03-04T04:17:15.615Z,991.50
2019-03-04T04:18:15.622Z,991.49
2019-03-04T04:19:15.647Z,991.48
2019-03-04T04:20:15.644Z,991.47
2019-03-04T04:21:15.642Z,991.47
2019-03-04T04:22:15.642Z,991.46
2019-03-04T04:23:15.647Z,991.48
2019-03-04T04:24:15.660Z,991.45
2019-03-04T04:25:15.662Z,991.43
2019-03-04T04:26:15.661Z,991.48
2019-03-04T04:27:15.665Z,991.42
2019-03-04T04:28:15.672Z,991.41
2019-03-04T04:29:15.678Z,991.41
2019-03-04T04:30:15.681Z,991.45
2019-03-04T04:31:15.687Z,991.42
2019-03-04T04:32:15.690Z,991.42
2019-03-04T04:33:15.694Z,991.42
2019-03-04T04:34:15.704Z,991.41
2019-03-04T04:35:15.720Z,991.40
2019-03-04T04:36:15.715Z,991.41
2019-03-04T04:37:15.714Z,991.42
2019-03-04T04:38:15.720Z,991.35
2019-03-04T04:39:15.725Z,991.40
2019-03-04T04:40:15.730Z,991.38
2019-03-04T04:41:15.768Z,991.33
2019-03-04T04:42:15.740Z,991.34
2019-03-04T04:43:15.745Z,991.32
2019-03-04T04:44:15.749Z,991.34
2019-03-04T04:45:15.755Z,991.34
2019-03-04T04:46:15.759Z,991.36
2019-03-04T04:47:15.765Z,991.30
2019-03-04T04:48:15.777Z,991.37
2019-03-04T04:49:15.772Z,991.31
2019-03-04T04:50:15.783Z,991.31
2019-03-04T04:51:15.783Z,991.35
2019-03-04T04:52:15.792Z,991.29
2019-03-04T04:53:15.794Z,991.36
2019-03-04T04:54:15.799Z,991.33
2019-03-04T04:55:15.805Z,991.35
2019-03-04T04:56:15.809Z,991.33
2019-03-04T04:57:15.812Z,991.35
2019-03-04T04:58:15.819Z,991.37
2019-03-04T04:59:15.824Z,991.42
2019-03-04T05:00:15.828Z,991.43
2019-03-04T05:01:15.835Z,991.43
2019-03-04T05:02:15.896Z,991.47
2019-03-04T05:03:15.844Z,991.45
2019-03-04T05:04:15.848Z,991.43
2019-03-04T05:05:15.854Z,991.45
2019-03-04T05:06:15.858Z,991.44
2019-03-04T05:07:15.864Z,991.40
2019-03-04T05:08:15.868Z,991.38
2019-03-04T05:09:15.874Z,991.41
2019-03-04T05:10:15.879Z,991.38
2019-03-04T05:11:15.884Z,991.37
2019-03-04T05:12:15.889Z,991.37
2019-03-04T05:13:15.894Z,991.36
2019-03-04T05:14:15.897Z,991.37
2019-03-04T05:15:15.904Z,991.34
2019-03-04T05:16:15.912Z,991.30
2019-03-04T05:17:15.912Z,991.32
2019-03-04T05:18:15.920Z,991.35
2019-03-04T05:19:15.923Z,991.35
2019-03-04T05:20:15.927Z,991.35
2019-03-04T05:21:15.933Z,991.37
2019-03-04T05:22:15.939Z,991.35
2019-03-04T05:23:15.946Z,991.33
2019-03-04T05:24:15.949Z,991.32
2019-03-04T05:25:15.960Z,991.34
2019-03-04T05:26:15.963Z,991.34
2019-03-04T05:27:15.962Z,991.33
2019-03-04T05:28:15.973Z,991.33
2019-03-04T05:29:15.972Z,991.36
2019-03-04T05:30:15.979Z,991.32
2019-03-04T05:31:15.983Z,991.32
2019-03-04T05:32:15.989Z,991.29
2019-03-04T05:33:15.992Z,991.28
2019-03-04T05:34:15.999Z,991.24
2019-03-04T05:35:16.003Z,991.24
2019-03-04T05:36:16.010Z,991.25
2019-03-04T05:37:16.014Z,991.24
2019-03-04T05:38:16.018Z,991.23
2019-03-04T05:39:16.023Z,991.28
2019-03-04T05:40:16.027Z,991.24
2019-03-04T05:41:16.032Z,991.24
2019-03-04T05:42:16.038Z,991.22
2019-03-04T05:43:16.043Z,991.27
2019-03-04T05:44:16.047Z,991.27
2019-03-04T05:45:16.053Z,991.27
2019-03-04T05:46:16.058Z,991.25
2019-03-04T05:47:16.063Z,991.26
2019-03-04T05:48:16.084Z,991.26
2019-03-04T05:49:16.072Z,991.25
2019-03-04T05:50:16.077Z,991.23
2019-03-04T05:51:16.083Z,991.23
2019-03-04T05:52:16.088Z,991.22
2019-03-04T05:53:16.092Z,991.23
2019-03-04T05:54:16.097Z,991.18
2019-03-04T05:55:16.104Z,991.20
2019-03-04T05:56:16.107Z,991.19
2019-03-04T05:57:16.112Z,991.22
2019-03-04T05:58:16.118Z,991.20
2019-03-04T05:59:19.694Z,991.25
2019-03-04T06:00:16.180Z,991.27
2019-03-04T06:01:16.131Z,991.29
2019-03-04T06:02:16.137Z,991.33
2019-03-04T06:03:16.142Z,991.29
2019-03-04T06:04:16.149Z,991.28
2019-03-04T06:05:16.155Z,991.28
2019-03-04T06:06:16.158Z,991.30
2019-03-04T06:07:16.163Z,991.28
2019-03-04T06:08:16.174Z,991.32
2019-03-04T06:09:16.172Z,991.31
2019-03-04T06:10:16.181Z,991.31
2019-03-04T06:11:16.181Z,991.34
2019-03-04T06:12:16.192Z,991.30
2019-03-04T06:13:16.194Z,991.27
2019-03-04T06:14:16.196Z,991.31
2019-03-04T06:15:16.204Z,991.26
2019-03-04T06:16:16.207Z,991.32
2019-03-04T06:17:16.212Z,991.31
2019-03-04T06:18:16.218Z,991.27
2019-03-04T06:19:16.222Z,991.26
2019-03-04T06:20:16.341Z,991.27
2019-03-04T06:21:16.234Z,991.22
2019-03-04T06:22:16.242Z,991.24
2019-03-04T06:23:16.243Z,991.24
2019-03-04T06:24:16.247Z,991.25
2019-03-04T06:25:16.252Z,991.26
2019-03-04T06:26:16.376Z,991.27
2019-03-04T06:27:16.263Z,991.31
2019-03-04T06:28:16.268Z,991.30
2019-03-04T06:29:16.272Z,991.30
2019-03-04T06:30:16.279Z,991.29
2019-03-04T06:31:16.292Z,991.26
2019-03-04T06:32:16.293Z,991.26
2019-03-04T06:33:16.292Z,991.23
2019-03-04T06:34:16.297Z,991.23
2019-03-04T06:35:16.302Z,991.26
2019-03-04T06:36:16.310Z,991.24
2019-03-04T06:37:16.312Z,991.21
2019-03-04T06:38:16.319Z,991.21
2019-03-04T06:39:16.323Z,991.27
2019-03-04T06:40:16.327Z,991.25
2019-03-04T06:41:16.334Z,991.22
2019-03-04T06:42:16.338Z,991.24
2019-03-04T06:43:16.343Z,991.30
2019-03-04T06:44:16.351Z,991.26
2019-03-04T06:45:16.351Z,991.32
2019-03-04T06:46:16.356Z,991.25
2019-03-04T06:47:16.362Z,991.26
2019-03-04T06:48:16.366Z,991.20
2019-03-04T06:49:16.373Z,991.16
2019-03-04T06:50:16.379Z,991.18
2019-03-04T06:51:16.382Z,991.14
2019-03-04T06:52:16.387Z,991.07
2019-03-04T06:53:16.393Z,991.16
2019-03-04T06:54:16.398Z,991.15
2019-03-04T06:55:16.403Z,991.11
2019-03-04T06:56:16.408Z,991.11
2019-03-04T06:57:16.412Z,991.10
2019-03-04T06:58:16.417Z,991.12
2019-03-04T06:59:16.423Z,991.12
2019-03-04T07:00:16.427Z,991.15
2019-03-04T07:01:16.431Z,991.16
2019-03-04T07:02:16.441Z,991.15
2019-03-04T07:03:16.444Z,991.14
2019-03-04T07:04:16.446Z,991.11
2019-03-04T07:05:16.452Z,991.11
2019-03-04T07:06:16.456Z,991.14
2019-03-04T07:07:16.462Z,991.09
2019-03-04T07:08:16.467Z,991.06
2019-03-04T07:09:16.479Z,991.07
2019-03-04T07:10:16.482Z,991.04
2019-03-04T07:11:16.488Z,991.04
2019-03-04T07:12:16.487Z,991.04
2019-03-04T07:13:16.492Z,991.06
2019-03-04T07:14:16.495Z,991.05
2019-03-04T07:15:16.501Z,991.06
2019-03-04T07:16:16.512Z,991.07
2019-03-04T07:17:16.512Z,991.06
2019-03-04T07:18:16.518Z,991.08
2019-03-04T07:19:16.534Z,991.04
2019-03-04T07:20:16.528Z,991.09
2019-03-04T07:21:16.530Z,991.06
2019-03-04T07:22:16.536Z,991.05
2019-03-04T07:23:16.542Z,991.02
2019-03-04T07:24:16.552Z,991.02
2019-03-04T07:25:16.556Z,990.99
2019-03-04T07:26:16.557Z,990.95
2019-03-04T07:27:16.560Z,990.98
2019-03-04T07:28:16.569Z,990.99
2019-03-04T07:29:16.570Z,991.00
2019-03-04T07:30:16.576Z,991.00
2019-03-04T07:31:16.580Z,991.02
2019-03-04T07:32:16.587Z,991.03
2019-03-04T07:33:16.592Z,991.04
2019-03-04T07:34:16.598Z,991.03
2019-03-04T07:35:16.603Z,991.00
2019-03-04T07:36:16.607Z,991.01
2019-03-04T07:37:16.613Z,991.02
2019-03-04T07:38:16.616Z,991.03
2019-03-04T07:39:16.622Z,991.01
2019-03-04T07:40:16.630Z,991.04
2019-03-04T07:41:16.632Z,991.02
2019-03-04T07:42:16.638Z,991.01
2019-03-04T07:43:16.642Z,990.97
2019-03-04T07:44:16.648Z,990.99
2019-03-04T07:45:16.651Z,990.93
2019-03-04T07:46:16.655Z,990.96
2019-03-04T07:47:16.662Z,990.95
2019-03-04T07:48:16.672Z,990.92
2019-03-04T07:49:16.677Z,990.92
2019-03-04T07:50:16.677Z,990.90
2019-03-04T07:51:16.682Z,990.89
2019-03-04T07:52:16.688Z,990.90
2019-03-04T07:53:19.028Z,990.84
2019-03-04T07:54:16.698Z,990.78
2019-03-04T07:55:16.701Z,990.77
2019-03-04T07:56:16.708Z,990.75
2019-03-04T07:57:16.712Z,990.72
2019-03-04T07:58:16.717Z,990.71
2019-03-04T07:59:16.723Z,990.70
2019-03-04T08:00:16.727Z,990.68
2019-03-04T08:01:16.732Z,990.69
2019-03-04T08:02:16.737Z,990.66
2019-03-04T08:03:16.996Z,990.66
2019-03-04T08:04:16.750Z,990.67
2019-03-04T08:05:16.753Z,990.70
2019-03-04T08:06:16.758Z,990.66
2019-03-04T08:07:16.763Z,990.73
2019-03-04T08:08:16.767Z,990.74
2019-03-04T08:09:16.774Z,990.73
2019-03-04T08:10:16.779Z,990.66
2019-03-04T08:11:16.782Z,990.71
2019-03-04T08:12:16.788Z,990.71
2019-03-04T08:13:16.793Z,990.70
2019-03-04T08:14:16.799Z,990.66
2019-03-04T08:15:16.805Z,990.69
2019-03-04T08:16:16.807Z,990.64
2019-03-04T08:17:16.813Z,990.66
2019-03-04T08:18:16.857Z,990.67
2019-03-04T08:19:16.825Z,990.68
2019-03-04T08:20:16.828Z,990.65
2019-03-04T08:21:16.834Z,990.70
2019-03-04T08:22:16.837Z,990.70
2019-03-04T08:23:16.844Z,990.70
2019-03-04T08:24:16.851Z,990.69
2019-03-04T08:25:16.854Z,990.66
2019-03-04T08:26:16.860Z,990.69
2019-03-04T08:27:16.864Z,990.69
2019-03-04T08:28:16.870Z,990.71
2019-03-04T08:29:16.877Z,990.70
2019-03-04T08:30:16.879Z,990.67
2019-03-04T08:31:16.885Z,990.72
2019-03-04T08:32:16.891Z,990.70
2019-03-04T08:33:16.894Z,990.69
2019-03-04T08:34:16.906Z,990.71
2019-03-04T08:35:16.904Z,990.72
2019-03-04T08:36:16.919Z,990.68
2019-03-04T08:37:16.917Z,990.74
2019-03-04T08:38:16.919Z,990.71
2019-03-04T08:39:16.926Z,990.69
2019-03-04T08:40:16.931Z,990.71
2019-03-04T08:41:16.936Z,990.74
2019-03-04T08:42:16.940Z,990.76
2019-03-04T08:43:16.950Z,990.71
2019-03-04T08:44:16.956Z,990.74
2019-03-04T08:45:16.955Z,990.72
2019-03-04T08:46:16.961Z,990.70
2019-03-04T08:47:16.966Z,990.68
2019-03-04T08:48:16.975Z,990.65
2019-03-04T08:49:16.975Z,990.63
2019-03-04T08:50:16.984Z,990.63
2019-03-04T08:51:16.989Z,990.57
2019-03-04T08:52:16.991Z,990.58
2019-03-04T08:53:16.995Z,990.56
2019-03-04T08:54:17.003Z,990.58
2019-03-04T08:55:17.006Z,990.54
2019-03-04T08:56:17.010Z,990.55
2019-03-04T08:57:17.014Z,990.53
2019-03-04T08:58:17.021Z,990.58
2019-03-04T08:59:17.027Z,990.57
2019-03-04T09:00:17.031Z,990.59
2019-03-04T09:01:17.038Z,990.65
2019-03-04T09:02:17.041Z,990.59
2019-03-04T09:03:17.046Z,990.60
2019-03-04T09:04:17.051Z,990.62
2019-03-04T09:05:17.057Z,990.60
2019-03-04T09:06:17.061Z,990.61
2019-03-04T09:07:17.067Z,990.61
2019-03-04T09:08:17.073Z,990.55
2019-03-04T09:09:17.076Z,990.60
2019-03-04T09:10:17.082Z,990.60
2019-03-04T09:11:17.088Z,990.60
2019-03-04T09:12:17.092Z,990.58
2019-03-04T09:13:17.097Z,990.59
2019-03-04T09:14:17.103Z,990.56
2019-03-04T09:15:17.116Z,990.54
2019-03-04T09:16:17.113Z,990.58
2019-03-04T09:17:17.116Z,990.58
2019-03-04T09:18:17.123Z,990.50
2019-03-04T09:19:17.128Z,990.54
2019-03-04T09:20:17.133Z,990.49
2019-03-04T09:21:17.138Z,990.53
2019-03-04T09:22:17.145Z,990.48
2019-03-04T09:23:17.147Z,990.46
2019-03-04T09:24:17.153Z,990.45
2019-03-04T09:25:17.278Z,990.44
2019-03-04T09:26:17.162Z,990.39
2019-03-04T09:27:17.167Z,990.44
2019-03-04T09:28:17.173Z,990.42
2019-03-04T09:29:17.176Z,990.42
2019-03-04T09:30:17.186Z,990.42
2019-03-04T09:31:17.187Z,990.41
2019-03-04T09:32:17.193Z,990.43
2019-03-04T09:33:17.197Z,990.46
2019-03-04T09:34:17.203Z,990.43
2019-03-04T09:35:17.228Z,990.43
2019-03-04T09:36:17.213Z,990.44
2019-03-04T09:37:17.217Z,990.42
2019-03-04T09:38:17.224Z,990.45
2019-03-04T09:39:17.231Z,990.44
2019-03-04T09:40:17.236Z,990.32
2019-03-04T09:41:17.237Z,990.33
2019-03-04T09:42:17.246Z,990.37
2019-03-04T09:43:17.247Z,990.39
2019-03-04T09:44:17.253Z,990.40
2019-03-04T09:45:17.256Z,990.36
2019-03-04T09:46:17.263Z,990.41
2019-03-04T09:47:17.268Z,990.39
2019-03-04T09:48:17.276Z,990.37
2019-03-04T09:49:17.282Z,990.37
2019-03-04T09:50:17.286Z,990.38
2019-03-04T09:51:24.018Z,990.38
2019-03-04T09:52:17.295Z,990.43
2019-03-04T09:53:17.298Z,990.40
2019-03-04T09:54:17.303Z,990.39
2019-03-04T09:55:17.308Z,990.41
2019-03-04T09:56:17.314Z,990.39
2019-03-04T09:57:17.319Z,990.33
2019-03-04T09:58:17.322Z,990.32
2019-03-04T09:59:17.327Z,990.29
2019-03-04T10:00:17.333Z,990.23
2019-03-04T10:01:17.338Z,990.29
2019-03-04T10:02:17.343Z,990.27
2019-03-04T10:03:17.350Z,990.23
2019-03-04T10:04:17.358Z,990.23
2019-03-04T10:05:17.360Z,990.20
2019-03-04T10:06:17.363Z,990.17
2019-03-04T10:07:17.369Z,990.17
2019-03-04T10:08:17.373Z,990.19
2019-03-04T10:09:17.381Z,990.22
2019-03-04T10:10:17.382Z,990.22
2019-03-04T10:11:17.388Z,990.21
2019-03-04T10:12:17.394Z,990.25
2019-03-04T10:13:17.399Z,990.20
2019-03-04T10:14:17.404Z,990.21
2019-03-04T10:15:17.409Z,990.20
2019-03-04T10:16:18.915Z,990.22
2019-03-04T10:17:17.420Z,990.22
2019-03-04T10:18:17.427Z,990.19
2019-03-04T10:19:17.429Z,990.24
2019-03-04T10:20:17.435Z,990.22
2019-03-04T10:21:17.441Z,990.22
2019-03-04T10:22:17.447Z,990.20
2019-03-04T10:23:17.449Z,990.22
2019-03-04T10:24:17.456Z,990.21
2019-03-04T10:25:17.461Z,990.23
2019-03-04T10:26:22.600Z,990.18
2019-03-04T10:27:17.472Z,990.19
2019-03-04T10:28:17.480Z,990.22
2019-03-04T10:29:17.478Z,990.22
2019-03-04T10:30:17.484Z,990.18
2019-03-04T10:31:17.493Z,990.21
2019-03-04T10:32:17.493Z,990.15
2019-03-04T10:33:17.498Z,990.17
2019-03-04T10:34:17.561Z,990.16
2019-03-04T10:35:17.510Z,990.15
2019-03-04T10:36:17.515Z,990.22
2019-03-04T10:37:17.520Z,990.19
2019-03-04T10:38:22.611Z,990.19
2019-03-04T10:39:17.788Z,990.22
2019-03-04T10:40:17.536Z,990.15
2019-03-04T10:41:17.538Z,990.16
2019-03-04T10:42:17.544Z,990.12
2019-03-04T10:43:17.550Z,990.13
2019-03-04T10:44:17.554Z,990.14
2019-03-04T10:45:18.289Z,990.10
2019-03-04T10:46:17.566Z,990.08
2019-03-04T10:47:17.572Z,990.08
2019-03-04T10:48:17.575Z,990.07
2019-03-04T10:49:17.579Z,990.08
2019-03-04T10:50:17.584Z,990.10
2019-03-04T10:51:18.757Z,990.10
2019-03-04T10:52:17.595Z,990.12
2019-03-04T10:53:17.600Z,990.09
2019-03-04T10:54:17.605Z,990.12
2019-03-04T10:55:17.720Z,990.10
2019-03-04T10:56:17.617Z,990.08
2019-03-04T10:57:17.619Z,990.08
2019-03-04T10:58:17.625Z,990.07
2019-03-04T10:59:17.631Z,990.03
2019-03-04T11:00:17.637Z,990.09
2019-03-04T11:01:17.639Z,990.06
2019-03-04T11:02:17.643Z,990.04
2019-03-04T11:03:17.650Z,990.04
2019-03-04T11:04:17.656Z,990.03
2019-03-04T11:05:17.659Z,989.95
2019-03-04T11:06:17.672Z,989.98
2019-03-04T11:07:17.671Z,989.95
2019-03-04T11:08:17.675Z,989.97
2019-03-04T11:09:17.679Z,989.97
2019-03-04T11:10:17.687Z,989.93
2019-03-04T11:11:17.692Z,989.92
2019-03-04T11:12:17.696Z,989.94
2019-03-04T11:13:17.700Z,989.88
2019-03-04T11:14:17.705Z,989.83
2019-03-04T11:15:17.710Z,989.83
2019-03-04T11:16:17.716Z,989.78
2019-03-04T11:17:17.721Z,989.80
2019-03-04T11:18:17.735Z,989.78
2019-03-04T11:19:17.731Z,989.73
2019-03-04T11:20:17.736Z,989.76
2019-03-04T11:21:17.742Z,989.72
2019-03-04T11:22:17.745Z,989.71
2019-03-04T11:23:50.961Z,989.65
2019-03-04T11:24:17.810Z,989.65
2019-03-04T11:25:17.760Z,989.58
2019-03-04T11:26:17.766Z,989.58
2019-03-04T11:27:17.771Z,989.60
2019-03-04T11:28:17.776Z,989.58
2019-03-04T11:29:17.781Z,989.58
2019-03-04T11:30:17.785Z,989.55
2019-03-04T11:31:17.789Z,989.57
2019-03-04T11:32:17.795Z,989.56
2019-03-04T11:33:17.802Z,989.54
2019-03-04T11:34:17.805Z,989.56
2019-03-04T11:35:17.809Z,989.54
2019-03-04T11:36:17.816Z,989.55
2019-03-04T11:37:17.822Z,989.58
2019-03-04T11:38:17.825Z,989.55
2019-03-04T11:39:17.830Z,989.54
2019-03-04T11:40:17.835Z,989.50
2019-03-04T11:41:17.842Z,989.49
2019-03-04T11:42:18.009Z,989.48
2019-03-04T11:43:17.850Z,989.47
2019-03-04T11:44:17.856Z,989.45
2019-03-04T11:45:17.859Z,989.44
2019-03-04T11:46:17.866Z,989.46
2019-03-04T11:47:17.873Z,989.45
2019-03-04T11:48:17.884Z,989.42
2019-03-04T11:49:17.880Z,989.45
2019-03-04T11:50:17.894Z,989.39
2019-03-04T11:51:17.893Z,989.35
2019-03-04T11:52:17.894Z,989.34
2019-03-04T11:53:17.900Z,989.30
2019-03-04T11:54:17.906Z,989.29
2019-03-04T11:55:17.917Z,989.26
2019-03-04T11:56:17.916Z,989.28
2019-03-04T11:57:17.923Z,989.24
2019-03-04T11:58:17.924Z,989.25
2019-03-04T11:59:17.930Z,989.26
2019-03-04T12:00:17.936Z,989.21
2019-03-04T12:01:17.940Z,989.25
2019-03-04T12:02:17.950Z,989.21
2019-03-04T12:03:17.950Z,989.21
2019-03-04T12:04:17.956Z,989.21
2019-03-04T12:05:17.960Z,989.19
2019-03-04T12:06:17.996Z,989.20
2019-03-04T12:07:17.969Z,989.17
2019-03-04T12:08:17.976Z,989.18
2019-03-04T12:09:17.982Z,989.20
2019-03-04T12:10:17.985Z,989.20
2019-03-04T12:11:17.994Z,989.24
2019-03-04T12:12:17.996Z,989.26
2019-03-04T12:13:17.999Z,989.23
2019-03-04T12:14:18.019Z,989.21
2019-03-04T12:15:18.011Z,989.22
2019-03-04T12:16:18.015Z,989.18
2019-03-04T12:17:18.018Z,989.19
2019-03-04T12:18:18.025Z,989.21
2019-03-04T12:19:18.032Z,989.17
2019-03-04T12:20:18.037Z,989.19
2019-03-04T12:21:18.040Z,989.17
2019-03-04T12:22:18.046Z,989.17
2019-03-04T12:23:18.051Z,989.19
2019-03-04T12:24:18.058Z,989.17
2019-03-04T12:25:18.061Z,989.14
2019-03-04T12:26:18.680Z,989.10
2019-03-04T12:27:18.071Z,989.06
2019-03-04T12:28:18.075Z,989.03